sensor_id;sensor_type;location;lat;lon;timestamp;P1;durP1;ratioP1;P2;durP2;ratioP2
14994;SDS011;7593;49.006;8.372;2022-09-14T00:01:17;13.82;;;8.25;;
14994;SDS011;7593;49.006;8.372;2022-09-14T00:03:51;11.52;;;8.93;;
14994;SDS011;7593;49.006;8.372;2022-09-14T00:06:19;12.32;;;8.65;;
14994;SDS011;7593;49.006;8.372;2022-09-14T00:08:48;14.35;;;9.85;;
14994;SDS011;7593;49.006;8.372;2022-09-14T00:11:15;12.98;;;10.45;;
14994;SDS011;7593;49.006;8.372;2022-09-14T00:13:43;15.13;;;9.65;;
14994;SDS011;7593;49.006;8.372;2022-09-14T00:16:14;12.15;;;10.82;;
14994;SDS011;7593;49.006;8.372;2022-09-14T00:18:43;12.38;;;11.07;;
14994;SDS011;7593;49.006;8.372;2022-09-14T00:21:16;13.27;;;11.98;;
14994;SDS011;7593;49.006;8.372;2022-09-14T00:23:43;13.00;;;11.63;;
14994;SDS011;7593;49.006;8.372;2022-09-14T00:26:11;13.75;;;11.40;;
14994;SDS011;7593;49.006;8.372;2022-09-14T00:28:40;12.32;;;11.02;;
14994;SDS011;7593;49.006;8.372;2022-09-14T00:31:10;12.77;;;10.52;;
14994;SDS011;7593;49.006;8.372;2022-09-14T00:33:39;11.50;;;10.40;;
14994;SDS011;7593;49.006;8.372;2022-09-14T00:36:07;13.02;;;10.43;;
14994;SDS011;7593;49.006;8.372;2022-09-14T00:38:37;12.80;;;10.18;;
14994;SDS011;7593;49.006;8.372;2022-09-14T00:41:07;12.40;;;9.82;;
14994;SDS011;7593;49.006;8.372;2022-09-14T00:43:50;12.98;;;9.90;;
14994;SDS011;7593;49.006;8.372;2022-09-14T00:46:18;10.70;;;9.18;;
14994;SDS011;7593;49.006;8.372;2022-09-14T00:48:45;10.63;;;9.63;;
14994;SDS011;7593;49.006;8.372;2022-09-14T00:51:12;11.35;;;9.38;;
14994;SDS011;7593;49.006;8.372;2022-09-14T00:53:43;10.90;;;9.80;;
14994;SDS011;7593;49.006;8.372;2022-09-14T00:56:10;12.10;;;10.13;;
14994;SDS011;7593;49.006;8.372;2022-09-14T00:58:38;12.48;;;11.30;;
14994;SDS011;7593;49.006;8.372;2022-09-14T01:01:08;11.38;;;10.23;;
14994;SDS011;7593;49.006;8.372;2022-09-14T01:03:35;13.25;;;10.57;;
14994;SDS011;7593;49.006;8.372;2022-09-14T01:06:04;14.80;;;10.65;;
14994;SDS011;7593;49.006;8.372;2022-09-14T01:08:45;13.30;;;12.10;;
14994;SDS011;7593;49.006;8.372;2022-09-14T01:14:14;14.90;;;12.70;;
14994;SDS011;7593;49.006;8.372;2022-09-14T01:16:49;13.98;;;12.45;;
14994;SDS011;7593;49.006;8.372;2022-09-14T01:19:26;12.63;;;11.32;;
14994;SDS011;7593;49.006;8.372;2022-09-14T01:22:05;16.92;;;12.77;;
14994;SDS011;7593;49.006;8.372;2022-09-14T01:24:38;17.40;;;13.05;;
14994;SDS011;7593;49.006;8.372;2022-09-14T01:27:16;15.65;;;13.88;;
14994;SDS011;7593;49.006;8.372;2022-09-14T01:29:50;18.08;;;14.85;;
14994;SDS011;7593;49.006;8.372;2022-09-14T01:32:26;18.35;;;14.50;;
14994;SDS011;7593;49.006;8.372;2022-09-14T01:34:56;18.23;;;16.33;;
14994;SDS011;7593;49.006;8.372;2022-09-14T01:37:29;49.03;;;18.92;;
14994;SDS011;7593;49.006;8.372;2022-09-14T01:40:02;21.83;;;19.33;;
14994;SDS011;7593;49.006;8.372;2022-09-14T01:42:34;20.67;;;18.50;;
14994;SDS011;7593;49.006;8.372;2022-09-14T01:45:06;21.27;;;18.98;;
14994;SDS011;7593;49.006;8.372;2022-09-14T01:47:37;22.83;;;18.63;;
14994;SDS011;7593;49.006;8.372;2022-09-14T01:50:09;22.58;;;19.85;;
14994;SDS011;7593;49.006;8.372;2022-09-14T01:52:41;21.35;;;19.08;;
14994;SDS011;7593;49.006;8.372;2022-09-14T01:55:12;27.20;;;21.60;;
14994;SDS011;7593;49.006;8.372;2022-09-14T01:57:48;24.60;;;20.15;;
14994;SDS011;7593;49.006;8.372;2022-09-14T02:00:19;28.08;;;22.48;;
14994;SDS011;7593;49.006;8.372;2022-09-14T02:02:48;26.42;;;21.13;;
14994;SDS011;7593;49.006;8.372;2022-09-14T02:05:18;24.40;;;21.33;;
14994;SDS011;7593;49.006;8.372;2022-09-14T02:07:51;23.52;;;20.88;;
14994;SDS011;7593;49.006;8.372;2022-09-14T02:10:19;19.70;;;17.25;;
14994;SDS011;7593;49.006;8.372;2022-09-14T02:12:48;19.02;;;17.00;;
14994;SDS011;7593;49.006;8.372;2022-09-14T02:15:15;21.95;;;17.38;;
14994;SDS011;7593;49.006;8.372;2022-09-14T02:17:42;19.67;;;17.67;;
14994;SDS011;7593;49.006;8.372;2022-09-14T02:20:10;30.67;;;20.33;;
14994;SDS011;7593;49.006;8.372;2022-09-14T02:22:41;28.05;;;22.75;;
14994;SDS011;7593;49.006;8.372;2022-09-14T02:25:08;31.58;;;25.15;;
14994;SDS011;7593;49.006;8.372;2022-09-14T02:27:35;30.02;;;25.42;;
14994;SDS011;7593;49.006;8.372;2022-09-14T02:30:04;33.83;;;29.08;;
14994;SDS011;7593;49.006;8.372;2022-09-14T02:32:34;34.20;;;28.83;;
14994;SDS011;7593;49.006;8.372;2022-09-14T02:35:07;37.38;;;28.35;;
14994;SDS011;7593;49.006;8.372;2022-09-14T02:37:42;36.97;;;28.77;;
14994;SDS011;7593;49.006;8.372;2022-09-14T02:40:16;34.63;;;29.35;;
14994;SDS011;7593;49.006;8.372;2022-09-14T02:42:51;35.15;;;29.75;;
14994;SDS011;7593;49.006;8.372;2022-09-14T02:45:27;31.27;;;27.50;;
14994;SDS011;7593;49.006;8.372;2022-09-14T02:48:01;32.13;;;27.67;;
14994;SDS011;7593;49.006;8.372;2022-09-14T02:50:34;34.15;;;28.48;;
14994;SDS011;7593;49.006;8.372;2022-09-14T02:53:05;35.50;;;28.25;;
14994;SDS011;7593;49.006;8.372;2022-09-14T02:55:39;32.83;;;27.60;;
14994;SDS011;7593;49.006;8.372;2022-09-14T02:58:10;32.90;;;27.38;;
14994;SDS011;7593;49.006;8.372;2022-09-14T03:00:40;31.63;;;26.20;;
14994;SDS011;7593;49.006;8.372;2022-09-14T03:03:09;30.33;;;25.85;;
14994;SDS011;7593;49.006;8.372;2022-09-14T03:05:37;33.13;;;26.67;;
14994;SDS011;7593;49.006;8.372;2022-09-14T03:08:04;30.98;;;25.17;;
14994;SDS011;7593;49.006;8.372;2022-09-14T03:10:32;32.03;;;26.40;;
14994;SDS011;7593;49.006;8.372;2022-09-14T03:12:59;34.92;;;27.75;;
14994;SDS011;7593;49.006;8.372;2022-09-14T03:15:26;31.70;;;26.77;;
14994;SDS011;7593;49.006;8.372;2022-09-14T03:17:55;35.25;;;27.25;;
14994;SDS011;7593;49.006;8.372;2022-09-14T03:20:22;35.70;;;27.67;;
14994;SDS011;7593;49.006;8.372;2022-09-14T03:22:50;34.22;;;28.83;;
14994;SDS011;7593;49.006;8.372;2022-09-14T03:25:17;39.45;;;28.98;;
14994;SDS011;7593;49.006;8.372;2022-09-14T03:27:46;37.65;;;28.60;;
14994;SDS011;7593;49.006;8.372;2022-09-14T03:30:14;35.50;;;29.13;;
14994;SDS011;7593;49.006;8.372;2022-09-14T03:32:41;35.15;;;28.58;;
14994;SDS011;7593;49.006;8.372;2022-09-14T03:35:09;37.03;;;28.77;;
14994;SDS011;7593;49.006;8.372;2022-09-14T03:37:37;37.17;;;30.75;;
14994;SDS011;7593;49.006;8.372;2022-09-14T03:40:05;37.67;;;31.23;;
14994;SDS011;7593;49.006;8.372;2022-09-14T03:42:33;38.35;;;30.83;;
14994;SDS011;7593;49.006;8.372;2022-09-14T03:45:00;35.10;;;28.85;;
14994;SDS011;7593;49.006;8.372;2022-09-14T03:47:27;34.38;;;29.23;;
14994;SDS011;7593;49.006;8.372;2022-09-14T03:49:55;37.90;;;27.65;;
14994;SDS011;7593;49.006;8.372;2022-09-14T03:52:23;33.38;;;27.02;;
14994;SDS011;7593;49.006;8.372;2022-09-14T03:54:50;33.83;;;28.20;;
14994;SDS011;7593;49.006;8.372;2022-09-14T03:57:17;35.65;;;27.38;;
14994;SDS011;7593;49.006;8.372;2022-09-14T03:59:43;30.20;;;26.42;;
14994;SDS011;7593;49.006;8.372;2022-09-14T04:02:10;37.67;;;28.67;;
14994;SDS011;7593;49.006;8.372;2022-09-14T04:04:37;34.83;;;29.08;;
14994;SDS011;7593;49.006;8.372;2022-09-14T04:07:04;36.95;;;29.90;;
14994;SDS011;7593;49.006;8.372;2022-09-14T04:09:32;40.10;;;30.85;;
14994;SDS011;7593;49.006;8.372;2022-09-14T04:11:59;38.88;;;31.35;;
14994;SDS011;7593;49.006;8.372;2022-09-14T04:14:26;38.88;;;30.02;;
14994;SDS011;7593;49.006;8.372;2022-09-14T04:16:53;38.97;;;30.50;;
14994;SDS011;7593;49.006;8.372;2022-09-14T04:19:20;34.65;;;30.67;;
14994;SDS011;7593;49.006;8.372;2022-09-14T04:21:46;40.03;;;33.67;;
14994;SDS011;7593;49.006;8.372;2022-09-14T04:24:13;38.20;;;33.25;;
14994;SDS011;7593;49.006;8.372;2022-09-14T04:26:42;39.67;;;33.17;;
14994;SDS011;7593;49.006;8.372;2022-09-14T04:29:09;37.28;;;30.75;;
14994;SDS011;7593;49.006;8.372;2022-09-14T04:31:38;37.25;;;32.65;;
14994;SDS011;7593;49.006;8.372;2022-09-14T04:34:06;36.88;;;30.13;;
14994;SDS011;7593;49.006;8.372;2022-09-14T04:36:32;39.70;;;31.77;;
14994;SDS011;7593;49.006;8.372;2022-09-14T04:39:00;45.05;;;34.22;;
14994;SDS011;7593;49.006;8.372;2022-09-14T04:41:28;48.33;;;36.40;;
14994;SDS011;7593;49.006;8.372;2022-09-14T04:43:58;42.08;;;34.03;;
14994;SDS011;7593;49.006;8.372;2022-09-14T04:46:25;40.00;;;33.78;;
14994;SDS011;7593;49.006;8.372;2022-09-14T04:48:53;38.65;;;31.83;;
14994;SDS011;7593;49.006;8.372;2022-09-14T04:51:21;39.40;;;33.35;;
14994;SDS011;7593;49.006;8.372;2022-09-14T04:53:49;37.70;;;31.15;;
14994;SDS011;7593;49.006;8.372;2022-09-14T04:56:18;35.75;;;31.80;;
14994;SDS011;7593;49.006;8.372;2022-09-14T04:58:46;35.72;;;30.20;;
14994;SDS011;7593;49.006;8.372;2022-09-14T05:01:17;37.42;;;31.25;;
14994;SDS011;7593;49.006;8.372;2022-09-14T05:03:45;34.72;;;30.88;;
14994;SDS011;7593;49.006;8.372;2022-09-14T05:06:14;37.40;;;30.95;;
14994;SDS011;7593;49.006;8.372;2022-09-14T05:08:42;40.83;;;32.67;;
14994;SDS011;7593;49.006;8.372;2022-09-14T05:11:13;39.70;;;31.95;;
14994;SDS011;7593;49.006;8.372;2022-09-14T05:13:41;39.08;;;32.17;;
14994;SDS011;7593;49.006;8.372;2022-09-14T05:16:08;39.60;;;31.33;;
14994;SDS011;7593;49.006;8.372;2022-09-14T05:18:40;39.38;;;31.55;;
14994;SDS011;7593;49.006;8.372;2022-09-14T05:21:09;37.75;;;30.25;;
14994;SDS011;7593;49.006;8.372;2022-09-14T05:23:37;37.30;;;29.05;;
14994;SDS011;7593;49.006;8.372;2022-09-14T05:26:04;38.20;;;28.67;;
14994;SDS011;7593;49.006;8.372;2022-09-14T05:28:32;36.17;;;27.85;;
14994;SDS011;7593;49.006;8.372;2022-09-14T05:31:02;36.20;;;29.00;;
14994;SDS011;7593;49.006;8.372;2022-09-14T05:33:29;37.53;;;30.02;;
14994;SDS011;7593;49.006;8.372;2022-09-14T05:36:00;39.33;;;30.23;;
14994;SDS011;7593;49.006;8.372;2022-09-14T05:38:28;41.58;;;32.15;;
14994;SDS011;7593;49.006;8.372;2022-09-14T05:40:55;39.35;;;31.33;;
14994;SDS011;7593;49.006;8.372;2022-09-14T05:43:22;40.08;;;31.17;;
14994;SDS011;7593;49.006;8.372;2022-09-14T05:45:49;47.38;;;35.10;;
14994;SDS011;7593;49.006;8.372;2022-09-14T05:48:16;49.97;;;37.83;;
14994;SDS011;7593;49.006;8.372;2022-09-14T05:50:43;49.13;;;35.47;;
14994;SDS011;7593;49.006;8.372;2022-09-14T05:53:11;49.42;;;35.63;;
14994;SDS011;7593;49.006;8.372;2022-09-14T05:55:38;49.53;;;34.78;;
14994;SDS011;7593;49.006;8.372;2022-09-14T05:58:05;48.40;;;35.03;;
14994;SDS011;7593;49.006;8.372;2022-09-14T06:00:32;50.17;;;36.40;;
14994;SDS011;7593;49.006;8.372;2022-09-14T06:02:59;46.85;;;35.10;;
14994;SDS011;7593;49.006;8.372;2022-09-14T06:05:25;44.05;;;33.08;;
14994;SDS011;7593;49.006;8.372;2022-09-14T06:07:52;46.42;;;34.78;;
14994;SDS011;7593;49.006;8.372;2022-09-14T06:10:21;45.17;;;32.33;;
14994;SDS011;7593;49.006;8.372;2022-09-14T06:12:48;44.83;;;34.58;;
14994;SDS011;7593;49.006;8.372;2022-09-14T06:15:15;46.67;;;33.72;;
14994;SDS011;7593;49.006;8.372;2022-09-14T06:17:42;43.05;;;32.85;;
14994;SDS011;7593;49.006;8.372;2022-09-14T06:20:09;43.90;;;34.42;;
14994;SDS011;7593;49.006;8.372;2022-09-14T06:22:36;39.58;;;32.25;;
14994;SDS011;7593;49.006;8.372;2022-09-14T06:25:03;37.75;;;30.13;;
14994;SDS011;7593;49.006;8.372;2022-09-14T06:27:31;39.35;;;30.95;;
14994;SDS011;7593;49.006;8.372;2022-09-14T06:29:58;40.58;;;30.77;;
14994;SDS011;7593;49.006;8.372;2022-09-14T06:32:25;37.90;;;30.27;;
14994;SDS011;7593;49.006;8.372;2022-09-14T06:34:54;40.05;;;31.27;;
14994;SDS011;7593;49.006;8.372;2022-09-14T06:37:21;37.28;;;29.55;;
14994;SDS011;7593;49.006;8.372;2022-09-14T06:39:48;39.63;;;29.65;;
14994;SDS011;7593;49.006;8.372;2022-09-14T06:42:15;37.65;;;30.30;;
14994;SDS011;7593;49.006;8.372;2022-09-14T06:44:43;37.22;;;29.13;;
14994;SDS011;7593;49.006;8.372;2022-09-14T06:47:09;33.97;;;27.02;;
14994;SDS011;7593;49.006;8.372;2022-09-14T06:49:36;34.55;;;27.85;;
14994;SDS011;7593;49.006;8.372;2022-09-14T06:52:03;32.08;;;27.10;;
14994;SDS011;7593;49.006;8.372;2022-09-14T06:54:30;33.17;;;27.25;;
14994;SDS011;7593;49.006;8.372;2022-09-14T06:56:59;33.85;;;26.63;;
14994;SDS011;7593;49.006;8.372;2022-09-14T06:59:26;32.13;;;27.27;;
14994;SDS011;7593;49.006;8.372;2022-09-14T07:01:54;32.97;;;27.77;;
14994;SDS011;7593;49.006;8.372;2022-09-14T07:04:21;32.13;;;26.80;;
14994;SDS011;7593;49.006;8.372;2022-09-14T07:06:49;34.22;;;27.33;;
14994;SDS011;7593;49.006;8.372;2022-09-14T07:09:17;32.92;;;27.30;;
14994;SDS011;7593;49.006;8.372;2022-09-14T07:11:44;33.90;;;28.00;;
14994;SDS011;7593;49.006;8.372;2022-09-14T07:14:13;32.53;;;27.33;;
14994;SDS011;7593;49.006;8.372;2022-09-14T07:16:40;32.50;;;26.58;;
14994;SDS011;7593;49.006;8.372;2022-09-14T07:19:10;29.65;;;26.23;;
14994;SDS011;7593;49.006;8.372;2022-09-14T07:21:38;32.42;;;28.15;;
14994;SDS011;7593;49.006;8.372;2022-09-14T07:24:05;28.65;;;24.98;;
14994;SDS011;7593;49.006;8.372;2022-09-14T07:26:33;24.75;;;22.23;;
14994;SDS011;7593;49.006;8.372;2022-09-14T07:29:05;23.48;;;21.05;;
14994;SDS011;7593;49.006;8.372;2022-09-14T07:31:33;23.63;;;20.52;;
14994;SDS011;7593;49.006;8.372;2022-09-14T07:34:02;22.63;;;19.98;;
14994;SDS011;7593;49.006;8.372;2022-09-14T07:36:32;19.63;;;17.52;;
14994;SDS011;7593;49.006;8.372;2022-09-14T07:39:00;20.20;;;18.20;;
14994;SDS011;7593;49.006;8.372;2022-09-14T07:41:28;19.55;;;17.40;;
14994;SDS011;7593;49.006;8.372;2022-09-14T07:43:56;16.42;;;14.85;;
14994;SDS011;7593;49.006;8.372;2022-09-14T07:46:24;15.85;;;14.07;;
14994;SDS011;7593;49.006;8.372;2022-09-14T07:48:53;16.45;;;12.32;;
14994;SDS011;7593;49.006;8.372;2022-09-14T07:51:21;13.40;;;11.93;;
14994;SDS011;7593;49.006;8.372;2022-09-14T07:53:51;15.77;;;13.18;;
14994;SDS011;7593;49.006;8.372;2022-09-14T07:56:18;14.38;;;12.93;;
14994;SDS011;7593;49.006;8.372;2022-09-14T07:58:45;14.48;;;13.00;;
14994;SDS011;7593;49.006;8.372;2022-09-14T08:01:13;13.07;;;11.38;;
14994;SDS011;7593;49.006;8.372;2022-09-14T08:03:42;13.90;;;12.50;;
14994;SDS011;7593;49.006;8.372;2022-09-14T08:06:10;13.27;;;11.90;;
14994;SDS011;7593;49.006;8.372;2022-09-14T08:08:39;12.88;;;11.57;;
14994;SDS011;7593;49.006;8.372;2022-09-14T08:11:09;12.90;;;11.25;;
14994;SDS011;7593;49.006;8.372;2022-09-14T08:13:37;13.07;;;11.77;;
14994;SDS011;7593;49.006;8.372;2022-09-14T08:16:05;13.77;;;11.45;;
14994;SDS011;7593;49.006;8.372;2022-09-14T08:18:33;13.23;;;10.25;;
14994;SDS011;7593;49.006;8.372;2022-09-14T08:21:02;11.65;;;9.65;;
14994;SDS011;7593;49.006;8.372;2022-09-14T08:23:30;14.52;;;9.13;;
14994;SDS011;7593;49.006;8.372;2022-09-14T08:26:00;9.02;;;8.10;;
14994;SDS011;7593;49.006;8.372;2022-09-14T08:28:29;10.02;;;8.00;;
14994;SDS011;7593;49.006;8.372;2022-09-14T08:31:00;8.05;;;7.25;;
14994;SDS011;7593;49.006;8.372;2022-09-14T08:33:29;8.45;;;6.70;;
14994;SDS011;7593;49.006;8.372;2022-09-14T08:35:57;7.57;;;6.78;;
14994;SDS011;7593;49.006;8.372;2022-09-14T08:38:24;11.70;;;5.95;;
14994;SDS011;7593;49.006;8.372;2022-09-14T08:40:50;7.00;;;5.28;;
14994;SDS011;7593;49.006;8.372;2022-09-14T08:43:18;7.13;;;5.25;;
14994;SDS011;7593;49.006;8.372;2022-09-14T08:45:49;6.05;;;4.70;;
14994;SDS011;7593;49.006;8.372;2022-09-14T08:48:22;6.57;;;4.40;;
14994;SDS011;7593;49.006;8.372;2022-09-14T08:50:53;4.30;;;3.53;;
14994;SDS011;7593;49.006;8.372;2022-09-14T08:53:20;5.50;;;4.07;;
14994;SDS011;7593;49.006;8.372;2022-09-14T08:55:48;5.32;;;3.90;;
14994;SDS011;7593;49.006;8.372;2022-09-14T08:58:19;6.32;;;4.05;;
14994;SDS011;7593;49.006;8.372;2022-09-14T09:00:58;6.00;;;3.90;;
14994;SDS011;7593;49.006;8.372;2022-09-14T09:06:29;6.68;;;4.30;;
14994;SDS011;7593;49.006;8.372;2022-09-14T09:09:06;7.45;;;4.53;;
14994;SDS011;7593;49.006;8.372;2022-09-14T09:11:40;5.28;;;4.70;;
14994;SDS011;7593;49.006;8.372;2022-09-14T09:14:14;5.15;;;4.47;;
14994;SDS011;7593;49.006;8.372;2022-09-14T09:16:48;7.28;;;4.20;;
14994;SDS011;7593;49.006;8.372;2022-09-14T09:19:18;6.03;;;4.13;;
14994;SDS011;7593;49.006;8.372;2022-09-14T09:21:49;4.43;;;4.03;;
14994;SDS011;7593;49.006;8.372;2022-09-14T09:24:21;8.27;;;4.68;;
14994;SDS011;7593;49.006;8.372;2022-09-14T09:26:52;9.65;;;4.60;;
14994;SDS011;7593;49.006;8.372;2022-09-14T09:29:19;5.40;;;4.20;;
14994;SDS011;7593;49.006;8.372;2022-09-14T09:31:49;6.32;;;3.75;;
14994;SDS011;7593;49.006;8.372;2022-09-14T09:34:20;7.15;;;3.83;;
14994;SDS011;7593;49.006;8.372;2022-09-14T09:36:51;6.38;;;3.22;;
14994;SDS011;7593;49.006;8.372;2022-09-14T09:39:20;6.85;;;3.28;;
14994;SDS011;7593;49.006;8.372;2022-09-14T09:41:47;4.72;;;3.20;;
14994;SDS011;7593;49.006;8.372;2022-09-14T09:44:17;4.82;;;2.90;;
14994;SDS011;7593;49.006;8.372;2022-09-14T09:46:45;7.10;;;2.97;;
14994;SDS011;7593;49.006;8.372;2022-09-14T09:49:17;4.40;;;2.78;;
14994;SDS011;7593;49.006;8.372;2022-09-14T09:51:45;7.18;;;2.92;;
14994;SDS011;7593;49.006;8.372;2022-09-14T09:54:21;4.53;;;2.63;;
14994;SDS011;7593;49.006;8.372;2022-09-14T09:56:51;3.17;;;2.25;;
14994;SDS011;7593;49.006;8.372;2022-09-14T09:59:21;6.40;;;2.40;;
14994;SDS011;7593;49.006;8.372;2022-09-14T10:01:53;5.97;;;2.75;;
14994;SDS011;7593;49.006;8.372;2022-09-14T10:04:23;4.30;;;2.20;;
14994;SDS011;7593;49.006;8.372;2022-09-14T10:06:53;3.90;;;2.28;;
14994;SDS011;7593;49.006;8.372;2022-09-14T10:09:22;4.93;;;2.40;;
14994;SDS011;7593;49.006;8.372;2022-09-14T10:11:56;5.50;;;2.42;;
14994;SDS011;7593;49.006;8.372;2022-09-14T10:14:25;4.18;;;2.30;;
14994;SDS011;7593;49.006;8.372;2022-09-14T10:17:03;4.95;;;2.60;;
14994;SDS011;7593;49.006;8.372;2022-09-14T10:19:34;3.15;;;2.00;;
14994;SDS011;7593;49.006;8.372;2022-09-14T10:22:03;2.75;;;2.03;;
14994;SDS011;7593;49.006;8.372;2022-09-14T10:24:41;3.22;;;2.10;;
14994;SDS011;7593;49.006;8.372;2022-09-14T10:27:34;4.07;;;2.20;;
14994;SDS011;7593;49.006;8.372;2022-09-14T10:30:05;5.47;;;2.40;;
14994;SDS011;7593;49.006;8.372;2022-09-14T10:32:37;3.40;;;2.17;;
14994;SDS011;7593;49.006;8.372;2022-09-14T10:35:12;4.40;;;2.05;;
14994;SDS011;7593;49.006;8.372;2022-09-14T10:37:45;5.93;;;2.33;;
14994;SDS011;7593;49.006;8.372;2022-09-14T10:40:23;5.07;;;2.40;;
14994;SDS011;7593;49.006;8.372;2022-09-14T10:42:59;3.15;;;2.03;;
14994;SDS011;7593;49.006;8.372;2022-09-14T10:45:34;4.05;;;2.17;;
14994;SDS011;7593;49.006;8.372;2022-09-14T10:51:27;5.53;;;2.00;;
14994;SDS011;7593;49.006;8.372;2022-09-14T10:54:06;3.83;;;2.30;;
14994;SDS011;7593;49.006;8.372;2022-09-14T10:56:59;3.78;;;2.25;;
14994;SDS011;7593;49.006;8.372;2022-09-14T10:59:37;6.80;;;2.00;;
14994;SDS011;7593;49.006;8.372;2022-09-14T11:02:20;4.03;;;2.03;;
14994;SDS011;7593;49.006;8.372;2022-09-14T11:05:04;3.40;;;2.05;;
14994;SDS011;7593;49.006;8.372;2022-09-14T11:07:40;5.68;;;2.10;;
14994;SDS011;7593;49.006;8.372;2022-09-14T11:10:18;6.53;;;2.50;;
14994;SDS011;7593;49.006;8.372;2022-09-14T11:12:54;5.68;;;2.15;;
14994;SDS011;7593;49.006;8.372;2022-09-14T11:15:42;3.95;;;1.85;;
14994;SDS011;7593;49.006;8.372;2022-09-14T11:18:20;4.15;;;1.90;;
14994;SDS011;7593;49.006;8.372;2022-09-14T11:20:56;6.60;;;2.20;;
14994;SDS011;7593;49.006;8.372;2022-09-14T11:23:35;5.40;;;2.13;;
14994;SDS011;7593;49.006;8.372;2022-09-14T11:26:09;6.43;;;2.17;;
14994;SDS011;7593;49.006;8.372;2022-09-14T11:28:40;6.47;;;2.20;;
14994;SDS011;7593;49.006;8.372;2022-09-14T11:31:11;4.05;;;1.92;;
14994;SDS011;7593;49.006;8.372;2022-09-14T11:33:42;5.15;;;2.20;;
14994;SDS011;7593;49.006;8.372;2022-09-14T11:36:15;5.00;;;2.30;;
14994;SDS011;7593;49.006;8.372;2022-09-14T11:38:48;3.70;;;2.20;;
14994;SDS011;7593;49.006;8.372;2022-09-14T11:41:19;4.53;;;2.10;;
14994;SDS011;7593;49.006;8.372;2022-09-14T11:43:51;4.45;;;2.17;;
14994;SDS011;7593;49.006;8.372;2022-09-14T11:46:23;4.60;;;2.40;;
14994;SDS011;7593;49.006;8.372;2022-09-14T11:48:53;4.35;;;2.20;;
14994;SDS011;7593;49.006;8.372;2022-09-14T11:51:27;2.67;;;2.30;;
14994;SDS011;7593;49.006;8.372;2022-09-14T11:53:59;4.45;;;2.25;;
14994;SDS011;7593;49.006;8.372;2022-09-14T11:56:27;4.03;;;2.20;;
14994;SDS011;7593;49.006;8.372;2022-09-14T11:58:56;3.78;;;2.22;;
14994;SDS011;7593;49.006;8.372;2022-09-14T12:01:26;4.90;;;2.28;;
14994;SDS011;7593;49.006;8.372;2022-09-14T12:04:03;4.18;;;2.25;;
14994;SDS011;7593;49.006;8.372;2022-09-14T12:06:45;4.88;;;2.42;;
14994;SDS011;7593;49.006;8.372;2022-09-14T12:12:27;4.75;;;2.47;;
14994;SDS011;7593;49.006;8.372;2022-09-14T12:15:03;3.00;;;2.22;;
14994;SDS011;7593;49.006;8.372;2022-09-14T12:17:43;4.35;;;2.40;;
14994;SDS011;7593;49.006;8.372;2022-09-14T12:20:24;5.50;;;2.50;;
14994;SDS011;7593;49.006;8.372;2022-09-14T12:23:03;4.07;;;2.20;;
14994;SDS011;7593;49.006;8.372;2022-09-14T12:25:50;6.88;;;2.40;;
14994;SDS011;7593;49.006;8.372;2022-09-14T12:28:27;3.88;;;2.63;;
14994;SDS011;7593;49.006;8.372;2022-09-14T12:31:11;5.32;;;2.65;;
14994;SDS011;7593;49.006;8.372;2022-09-14T12:34:03;7.05;;;2.60;;
14994;SDS011;7593;49.006;8.372;2022-09-14T12:40:32;13.45;;;2.13;;
14994;SDS011;7593;49.006;8.372;2022-09-14T12:49:24;5.72;;;1.85;;
14994;SDS011;7593;49.006;8.372;2022-09-14T12:52:09;10.60;;;1.58;;
14994;SDS011;7593;49.006;8.372;2022-09-14T12:54:57;6.80;;;1.80;;
14994;SDS011;7593;49.006;8.372;2022-09-14T12:57:36;19.15;;;1.98;;
14994;SDS011;7593;49.006;8.372;2022-09-14T13:00:10;4.13;;;1.95;;
14994;SDS011;7593;49.006;8.372;2022-09-14T13:02:44;5.55;;;1.70;;
14994;SDS011;7593;49.006;8.372;2022-09-14T13:05:31;6.93;;;1.80;;
14994;SDS011;7593;49.006;8.372;2022-09-14T13:07:59;5.28;;;1.73;;
14994;SDS011;7593;49.006;8.372;2022-09-14T13:10:29;7.93;;;1.83;;
14994;SDS011;7593;49.006;8.372;2022-09-14T13:13:04;4.63;;;1.60;;
14994;SDS011;7593;49.006;8.372;2022-09-14T13:15:51;4.05;;;2.08;;
14994;SDS011;7593;49.006;8.372;2022-09-14T13:18:31;9.95;;;1.92;;
14994;SDS011;7593;49.006;8.372;2022-09-14T13:21:00;3.50;;;2.05;;
14994;SDS011;7593;49.006;8.372;2022-09-14T13:23:29;3.78;;;2.10;;
14994;SDS011;7593;49.006;8.372;2022-09-14T13:26:06;3.75;;;2.95;;
14994;SDS011;7593;49.006;8.372;2022-09-14T13:28:35;5.20;;;2.72;;
14994;SDS011;7593;49.006;8.372;2022-09-14T13:31:02;5.03;;;3.13;;
14994;SDS011;7593;49.006;8.372;2022-09-14T13:33:31;6.90;;;3.20;;
14994;SDS011;7593;49.006;8.372;2022-09-14T13:35:59;5.25;;;3.30;;
14994;SDS011;7593;49.006;8.372;2022-09-14T13:38:28;3.90;;;3.00;;
14994;SDS011;7593;49.006;8.372;2022-09-14T13:41:02;5.35;;;3.08;;
14994;SDS011;7593;49.006;8.372;2022-09-14T13:43:31;5.65;;;3.60;;
14994;SDS011;7593;49.006;8.372;2022-09-14T13:45:59;5.05;;;3.90;;
14994;SDS011;7593;49.006;8.372;2022-09-14T13:48:26;6.00;;;3.50;;
14994;SDS011;7593;49.006;8.372;2022-09-14T13:50:55;6.05;;;3.95;;
14994;SDS011;7593;49.006;8.372;2022-09-14T13:53:35;5.97;;;3.80;;
14994;SDS011;7593;49.006;8.372;2022-09-14T13:58:48;7.40;;;4.20;;
14994;SDS011;7593;49.006;8.372;2022-09-14T14:01:25;8.82;;;4.15;;
14994;SDS011;7593;49.006;8.372;2022-09-14T14:03:53;7.72;;;4.15;;
14994;SDS011;7593;49.006;8.372;2022-09-14T14:06:24;7.13;;;4.25;;
14994;SDS011;7593;49.006;8.372;2022-09-14T14:08:53;4.65;;;3.67;;
14994;SDS011;7593;49.006;8.372;2022-09-14T14:11:33;6.18;;;4.20;;
14994;SDS011;7593;49.006;8.372;2022-09-14T14:14:12;4.25;;;3.67;;
14994;SDS011;7593;49.006;8.372;2022-09-14T14:19:52;6.70;;;3.58;;
14994;SDS011;7593;49.006;8.372;2022-09-14T14:22:22;5.97;;;3.35;;
14994;SDS011;7593;49.006;8.372;2022-09-14T14:24:51;5.82;;;3.60;;
14994;SDS011;7593;49.006;8.372;2022-09-14T14:27:29;4.88;;;3.78;;
14994;SDS011;7593;49.006;8.372;2022-09-14T14:29:57;6.13;;;3.50;;
14994;SDS011;7593;49.006;8.372;2022-09-14T14:32:25;3.40;;;3.10;;
14994;SDS011;7593;49.006;8.372;2022-09-14T14:34:53;4.93;;;3.53;;
14994;SDS011;7593;49.006;8.372;2022-09-14T14:37:21;4.82;;;3.33;;
14994;SDS011;7593;49.006;8.372;2022-09-14T14:39:48;9.77;;;3.45;;
14994;SDS011;7593;49.006;8.372;2022-09-14T14:42:15;6.15;;;3.78;;
14994;SDS011;7593;49.006;8.372;2022-09-14T14:44:42;4.75;;;3.75;;
14994;SDS011;7593;49.006;8.372;2022-09-14T14:47:10;5.60;;;3.78;;
14994;SDS011;7593;49.006;8.372;2022-09-14T14:49:38;5.20;;;3.83;;
14994;SDS011;7593;49.006;8.372;2022-09-14T14:52:05;4.82;;;4.30;;
14994;SDS011;7593;49.006;8.372;2022-09-14T14:54:33;7.50;;;4.53;;
14994;SDS011;7593;49.006;8.372;2022-09-14T14:57:00;5.57;;;3.90;;
14994;SDS011;7593;49.006;8.372;2022-09-14T14:59:27;7.00;;;4.10;;
14994;SDS011;7593;49.006;8.372;2022-09-14T15:01:55;5.13;;;3.70;;
14994;SDS011;7593;49.006;8.372;2022-09-14T15:04:22;4.90;;;3.03;;
14994;SDS011;7593;49.006;8.372;2022-09-14T15:06:49;4.55;;;3.10;;
14994;SDS011;7593;49.006;8.372;2022-09-14T15:09:16;5.85;;;3.03;;
14994;SDS011;7593;49.006;8.372;2022-09-14T15:11:46;3.13;;;2.63;;
14994;SDS011;7593;49.006;8.372;2022-09-14T15:14:14;4.05;;;2.50;;
14994;SDS011;7593;49.006;8.372;2022-09-14T15:16:43;4.80;;;2.47;;
14994;SDS011;7593;49.006;8.372;2022-09-14T15:19:11;3.55;;;2.45;;
14994;SDS011;7593;49.006;8.372;2022-09-14T15:21:39;3.67;;;2.40;;
14994;SDS011;7593;49.006;8.372;2022-09-14T15:24:08;3.58;;;2.53;;
14994;SDS011;7593;49.006;8.372;2022-09-14T15:26:36;3.53;;;2.50;;
14994;SDS011;7593;49.006;8.372;2022-09-14T15:29:04;4.22;;;2.40;;
14994;SDS011;7593;49.006;8.372;2022-09-14T15:31:33;4.32;;;2.47;;
14994;SDS011;7593;49.006;8.372;2022-09-14T15:33:59;4.43;;;2.50;;